• Join FlightAware (Why Join?)
  • Login
  • US Flag 
01:25AM EDT


 

Airport Tracker/Info


-or-


 

Live Flight TrackerFlight Track Log ✈ CHQ6152 ✈ 19-Apr-2013 ✈ KRIC - KCVG

Flight Track Log - Related Links

Times and Time Zones

All times are in EDT time to prevent confusion due to time zone crossing. See the CHQ6152 flight status page for this flight to view local times or setup timezone preferences in your user account.

Time Position Orientation Groundspeed Altitude Reporting Facility
EDT Latitude Longitude Course Direction KTS MPH feet Rate Location/Type
09:01PM 37.4833 -77.3333 253° West 149 171 1,300  Level Potomac TRACON
09:02PM 37.4158 -77.3411 185° South 170 196 5,300 2,220 Climbing Washington Center
09:03PM 37.4044 -77.4064 258° West 146 168 7,100 2,100 Climbing Washington Center
09:04PM 37.3841 -77.8123 257° West  Level FlightAware Approximate
09:04PM 37.3992 -77.4872 265° West 186 214 9,600  Level Washington Center
09:05PM 37.3565 -77.9376 254° West  Level FlightAware Approximate
09:05PM 37.3936 -77.5681 265° West 221 254 11,300  Level Washington Center
09:06PM 37.3382 -78.0640 253° West  Level FlightAware Approximate
09:06PM 37.3856 -77.6672 264° West 259 298 12,900  Level Washington Center
09:07PM 37.3778 -77.7583 264° West 277 319 15,900 2,520 Climbing Washington Center
09:08PM 37.3719 -77.8550 266° West 264 304 18,000 1,800 Climbing Washington Center
09:09PM 37.3639 -77.9514 264° West 270 311 19,600 1,440 Climbing Washington Center
09:10PM 37.3450 -78.0475 256° West 281 323 20,900 1,500 Climbing Washington Center
09:11PM 37.3222 -78.1486 254° West 294 338 22,700 1,800 Climbing Washington Center
09:12PM 37.3036 -78.2394 256° West 300 345 24,500 1,620 Climbing Washington Center
09:13PM 37.2992 -78.3383 267° West 294 338 26,000 720 Climbing Washington Center
09:14PM 37.3700 -78.4378 312° West 300 345 26,000  Level Washington Center
09:15PM 37.4550 -78.5428 316° Northwest 372 428 26,000  Level Washington Center
09:16PM 37.5542 -78.6619 316° Northwest 421 484 26,000  Level Washington Center
09:17PM 37.6411 -78.7731 315° West 442 509 26,000  Level Washington Center
09:18PM 37.7297 -78.8869 315° West 447 514 26,000  Level Washington Center
09:19PM 37.8122 -78.9906 315° West 452 520 26,000  Level Washington Center
09:20PM 37.8964 -79.1075 312° West 452 520 26,000  Level Washington Center
09:21PM 37.9467 -79.2469 295° West 440 506 26,000  Level Washington Center
09:22PM 37.9939 -79.4019 291° West 429 494 26,000  Level Washington Center
09:23PM 38.0333 -79.5411 290° West 429 494 26,000  Level Washington Center
09:24PM 38.0764 -79.6806 291° West 429 494 26,000  Level Washington Center
09:25PM 38.1139 -79.8067 291° West 424 488 26,000  Level Washington Center
09:26PM 38.1528 -79.9408 290° West 419 482 26,000 300 Level Washington Center
09:27PM 38.1939 -80.0728 292° West 412 474 26,600 1,440 Climbing Washington Center
09:28PM 38.2289 -80.1911 291° West 390 449 28,900 1,320 Climbing Washington Center
09:30PM 38.2808 -80.3697 290° West 363 418 30,000 420 Climbing Indianapolis Center
09:31PM 38.3189 -80.5028 290° West 399 459 30,000  Level Indianapolis Center
09:32PM 38.3292 -80.6389 276° West 384 442 30,000  Level Indianapolis Center
09:33PM 38.3319 -80.7756 272° West 384 442 30,000  Level Indianapolis Center
09:34PM 38.3361 -80.9089 272° West 378 435 30,000  Level Indianapolis Center
09:35PM 38.3392 -81.0331 272° West 360 414 30,000 -240 Level Indianapolis Center
09:36PM 38.3411 -81.1497 271° West 332 382 29,600 -1,380 Descending Indianapolis Center
09:37PM 38.3439 -81.2717 272° West 341 392 27,200 -2,460 Descending Indianapolis Center
09:38PM 38.3461 -81.3844 271° West 320 368 24,600 -1,620 Descending Indianapolis Center
09:39PM 38.3478 -81.4928 271° West 307 353 24,000 -300 Descending Indianapolis Center
09:40PM 38.3500 -81.6075 271° West 320 368 24,000  Level Indianapolis Center
09:41PM 38.3519 -81.7247 271° West 325 374 24,000  Level Indianapolis Center
09:42PM 38.3539 -81.8728 271° West 343 395 24,000  Level Indianapolis Center
09:43PM 38.3553 -82.0017 271° West 358 412 24,000  Level Indianapolis Center
09:44PM 38.3581 -82.1289 272° West 358 412 24,000  Level Indianapolis Center
09:45PM 38.3592 -82.2558 271° West 358 412 24,000  Level Indianapolis Center
09:46PM 38.3603 -82.3792 271° West 349 402 24,000 -60 Level Indianapolis Center
09:47PM 38.3622 -82.4983 271° West 339 390 23,900 -600 Descending Indianapolis Center
09:48PM 38.3625 -82.6083 270° West 331 381 22,800 -960 Descending Indianapolis Center
09:49PM 38.3836 -82.7392 282° West 328 377 22,000 -420 Descending Indianapolis Center
09:50PM 38.4069 -82.8572 284° West 342 394 22,000  Level Indianapolis Center
09:51PM 38.4314 -82.9789 284° West 353 406 22,000  Level Indianapolis Center
09:52PM 38.4558 -83.1031 284° West 358 412 22,000 -780 Level Indianapolis Center
09:53PM 38.4808 -83.2283 284° West 363 418 20,500 -1,740 Descending Indianapolis Center
09:54PM 38.5039 -83.3508 284° West 357 411 18,500 -1,920 Descending Indianapolis Center
09:55PM 38.5267 -83.4692 284° West 346 398 16,600 -1,920 Descending Indianapolis Center
09:56PM 38.5494 -83.5853 284° West 340 391 14,700 -1,920 Descending Indianapolis Center
09:57PM 38.5719 -83.7019 284° West 338 389 12,700 -2,160 Descending Indianapolis Center
09:58PM 38.5967 -83.8347 283° West 331 381 10,400 -1,320 Descending Indianapolis Center
10:00PM 38.6208 -83.9425 286° West 317 365 10,100 -300 Descending Indianapolis Center
10:01PM 38.6694 -84.0278 306° West 325 374 9,900 -120 Descending Indianapolis Center
10:02PM 38.7197 -84.1281 303° West 329 379 9,900 -120 Level Indianapolis Center
10:03PM 38.7664 -84.2175 304° West 304 350 9,700 -900 Descending Indianapolis Center
10:04PM 38.8267 -84.2569 333° Northwest 255 293 8,100 -1,740 Descending Indianapolis Center
10:05PM 38.8867 -84.2950 334° Northwest 241 277 6,200 -1,560 Descending Indianapolis Center
10:06PM 38.9442 -84.3286 336° Northwest 229 264 5,000 -840 Descending Indianapolis Center
10:07PM 39.0039 -84.3650 335° Northwest 230 265 4,600 -720 Descending Indianapolis Center
10:07PM 39.0333 -84.4167 306° West 214 246 3,800 -780 Descending Cincinnati TRACON
10:08PM 39.0500 -84.5000 284° West 211 243 3,300 -720 Descending Cincinnati TRACON
10:09PM 39.0500 -84.5500 270° West 146 168 2,400 -900 Descending Cincinnati TRACON